Kezdőlap
METAR-TAF:

METAR-TAF

Repülőterek :

Wiscasset Airport

Wiscasset, Maine, Amerikai Egyesült Államok

földrajzi szélesség: 43-57-49N, földrajzi hosszúság: 069-42-42W, magasság: 20 m

Jelenlegi meteorológiai megfigyelések

A jelentés 55 perccel ezelõtt készült, 08:53 UTC
Dél-délnyugati szél 5 kt
Hőmérséklet 18°C
Páratartalom 94%
Légköri nyomás 1018 hPa
Látótávolság: 16.1 km
Borult 700 lábon

METAR: KIWI 080853Z AUTO 20005KT 10SM OVC007 18/17 A3005 RMK AO2 SLP177 T01830167 56013

Idő: 05:48 (09:48 UTC)


TAF: hiányzik

Meteorológiai megfigyelések és előrejelzések több, mint 4000 repülőtéren (METAR és TAF jelentéseket).

A térképen piros és sárga pontok jelzik az elérhető meteorológiai állomásokat.

Mozgassa az egeret a pont fölött, hogy megjelenjen az állomás neve.

Azután kattintson az időjárási megfigyelések és előrejelzések megtekintéséhez.

A térkép megváltoztatása: kattintson a fekete keresztel jelölt zöld gombra ráközelítéshez, a vonallal jelölt zöld gombra távolításhoz, vagy a zöld nyilakra a szomszédos térképek eléréséhez.


METAR-TAF: